createdAt,value
2019-03-19T00:00:59.871Z,65.60
2019-03-19T00:03:34.906Z,65.60
2019-03-19T00:06:09.507Z,65.70
2019-03-19T00:08:44.845Z,65.70
2019-03-19T00:11:19.946Z,65.70
2019-03-19T00:13:54.821Z,65.70
2019-03-19T00:16:30.074Z,65.80
2019-03-19T00:19:04.602Z,65.80
2019-03-19T00:21:39.492Z,65.90
2019-03-19T00:24:14.417Z,65.90
2019-03-19T00:26:49.362Z,65.90
2019-03-19T00:29:24.011Z,66.00
2019-03-19T00:31:58.704Z,66.00
2019-03-19T00:34:33.851Z,66.10
2019-03-19T00:37:08.278Z,66.10
2019-03-19T00:39:48.970Z,66.10
2019-03-19T00:42:24.066Z,66.20
2019-03-19T00:44:58.337Z,66.20
2019-03-19T00:47:33.604Z,66.20
2019-03-19T00:50:09.052Z,66.30
2019-03-19T00:52:44.073Z,66.40
2019-03-19T00:55:20.084Z,66.40
2019-03-19T00:57:55.088Z,66.50
2019-03-19T01:00:29.309Z,66.30
2019-03-19T01:03:03.902Z,66.40
2019-03-19T01:05:38.277Z,66.40
2019-03-19T01:08:13.034Z,67.00
2019-03-19T01:10:47.739Z,66.60
2019-03-19T01:13:23.212Z,67.10
2019-03-19T01:15:58.005Z,66.50
2019-03-19T01:18:33.495Z,66.60
2019-03-19T01:21:08.302Z,66.60
2019-03-19T01:23:43.084Z,66.80
2019-03-19T01:26:18.021Z,66.60
2019-03-19T01:28:53.185Z,66.70
2019-03-19T01:31:28.086Z,66.70
2019-03-19T01:34:02.731Z,66.70
2019-03-19T01:36:37.732Z,66.70
2019-03-19T01:39:12.313Z,66.90
2019-03-19T01:41:47.225Z,66.90
2019-03-19T01:44:21.979Z,66.90
2019-03-19T01:46:57.028Z,66.90
2019-03-19T01:49:31.741Z,67.10
2019-03-19T01:52:07.458Z,67.10
2019-03-19T01:54:42.434Z,67.20
2019-03-19T01:57:17.660Z,67.30
2019-03-19T01:59:52.303Z,67.30
2019-03-19T02:02:27.007Z,67.40
2019-03-19T02:05:01.874Z,67.50
2019-03-19T02:07:36.740Z,67.70
2019-03-19T02:10:12.076Z,68.40
2019-03-19T02:12:46.995Z,67.50
2019-03-19T02:15:21.575Z,67.50
2019-03-19T02:17:56.071Z,67.50
2019-03-19T02:20:30.655Z,67.60
2019-03-19T02:23:05.514Z,67.60
2019-03-19T02:25:39.892Z,67.60
2019-03-19T02:28:14.759Z,67.60
2019-03-19T02:30:49.606Z,68.50
2019-03-19T02:33:24.874Z,67.60
2019-03-19T02:36:00.113Z,67.60
2019-03-19T02:38:35.148Z,67.50
2019-03-19T02:41:20.813Z,67.50
2019-03-19T02:43:55.520Z,67.50
2019-03-19T02:46:30.554Z,67.60
2019-03-19T02:49:05.137Z,67.40
2019-03-19T02:51:40.221Z,67.50
2019-03-19T02:54:15.298Z,67.30
2019-03-19T02:56:49.815Z,67.40
2019-03-19T02:59:24.416Z,67.70
2019-03-19T03:01:59.496Z,67.40
2019-03-19T03:04:34.028Z,67.30
2019-03-19T03:07:08.599Z,67.20
2019-03-19T03:09:43.107Z,67.00
2019-03-19T03:12:17.984Z,67.00
2019-03-19T03:14:52.520Z,66.80
2019-03-19T03:17:26.647Z,66.70
2019-03-19T03:20:01.623Z,67.50
2019-03-19T03:22:35.668Z,66.50
2019-03-19T03:25:11.109Z,66.40
2019-03-19T03:27:45.641Z,66.30
2019-03-19T03:30:20.550Z,66.20
2019-03-19T03:32:55.556Z,66.20
2019-03-19T03:35:30.277Z,66.10
2019-03-19T03:38:05.201Z,66.00
2019-03-19T03:40:40.412Z,65.90
2019-03-19T03:43:14.731Z,65.80
2019-03-19T03:45:49.588Z,65.60
2019-03-19T03:48:24.846Z,65.60
2019-03-19T03:50:59.523Z,65.40
2019-03-19T03:53:34.854Z,65.30
2019-03-19T03:56:10.199Z,65.30
2019-03-19T03:58:59.656Z,66.10
2019-03-19T04:01:21.263Z,65.10
2019-03-19T04:03:56.531Z,65.00
2019-03-19T04:06:31.204Z,64.80
2019-03-19T04:09:09.294Z,65.60
2019-03-19T04:11:43.413Z,64.70
2019-03-19T04:14:19.252Z,64.60
2019-03-19T04:16:53.815Z,64.30
2019-03-19T04:19:28.490Z,64.20
2019-03-19T04:22:03.313Z,64.30
2019-03-19T04:24:38.323Z,64.10
2019-03-19T04:27:16.432Z,63.80
2019-03-19T04:29:49.742Z,62.50
2019-03-19T04:32:24.576Z,61.00
2019-03-19T04:35:00.110Z,59.70
2019-03-19T04:37:35.480Z,58.90
2019-03-19T04:40:11.138Z,58.10
2019-03-19T04:42:46.146Z,57.40
2019-03-19T04:45:20.896Z,56.90
2019-03-19T04:47:55.738Z,56.40
2019-03-19T04:50:31.329Z,55.80
2019-03-19T04:53:06.777Z,55.80
2019-03-19T04:55:41.088Z,54.50
2019-03-19T04:58:16.509Z,54.10
2019-03-19T05:00:51.154Z,54.50
2019-03-19T05:03:25.936Z,54.90
2019-03-19T05:06:00.700Z,55.20
2019-03-19T05:08:35.576Z,55.50
2019-03-19T05:11:10.359Z,55.90
2019-03-19T05:13:47.538Z,55.80
2019-03-19T05:16:22.560Z,55.60
2019-03-19T05:18:56.668Z,55.50
2019-03-19T05:21:31.760Z,54.80
2019-03-19T05:24:06.607Z,54.30
2019-03-19T05:26:41.536Z,53.70
2019-03-19T05:29:16.189Z,53.10
2019-03-19T05:31:50.782Z,52.70
2019-03-19T05:34:25.808Z,52.20
2019-03-19T05:37:00.025Z,51.90
2019-03-19T05:39:35.236Z,51.60
2019-03-19T05:42:09.921Z,50.90
2019-03-19T05:44:45.260Z,51.30
2019-03-19T05:47:19.949Z,50.50
2019-03-19T05:49:54.307Z,50.20
2019-03-19T05:52:28.960Z,50.20
2019-03-19T05:55:04.074Z,49.90
2019-03-19T05:57:48.804Z,50.10
2019-03-19T06:00:16.396Z,49.60
2019-03-19T06:02:50.690Z,49.30
2019-03-19T06:05:26.091Z,49.00
2019-03-19T06:08:00.237Z,48.80
2019-03-19T06:10:35.024Z,49.80
2019-03-19T06:13:10.466Z,50.00
2019-03-19T06:15:45.494Z,50.10
2019-03-19T06:18:20.713Z,50.00
2019-03-19T06:20:55.490Z,49.70
2019-03-19T06:23:30.808Z,49.60
2019-03-19T06:26:05.898Z,49.30
2019-03-19T06:28:40.477Z,49.00
2019-03-19T06:31:15.408Z,49.00
2019-03-19T06:33:49.774Z,49.10
2019-03-19T06:36:24.521Z,49.60
2019-03-19T06:38:59.058Z,50.10
2019-03-19T06:41:34.667Z,50.80
2019-03-19T06:44:09.990Z,52.10
2019-03-19T06:46:44.476Z,53.40
2019-03-19T06:49:19.763Z,53.60
2019-03-19T06:51:54.477Z,53.90
2019-03-19T06:54:28.858Z,54.70
2019-03-19T06:57:03.373Z,54.80
2019-03-19T06:59:38.156Z,53.90
2019-03-19T07:02:13.433Z,53.40
2019-03-19T07:04:48.361Z,52.60
2019-03-19T07:07:23.047Z,51.80
2019-03-19T07:09:57.144Z,51.30
2019-03-19T07:12:31.929Z,50.80
2019-03-19T07:15:06.830Z,50.80
2019-03-19T07:17:41.752Z,50.50
2019-03-19T07:20:17.662Z,50.50
2019-03-19T07:22:52.504Z,50.60
2019-03-19T07:25:27.331Z,49.80
2019-03-19T07:28:02.058Z,50.50
2019-03-19T07:30:36.574Z,51.70
2019-03-19T07:33:12.994Z,52.00
2019-03-19T07:35:47.958Z,52.90
2019-03-19T07:38:22.777Z,53.80
2019-03-19T07:40:57.642Z,53.60
2019-03-19T07:43:32.308Z,53.50
2019-03-19T07:46:07.067Z,53.20
2019-03-19T07:48:41.759Z,53.10
2019-03-19T07:51:16.436Z,53.00
2019-03-19T07:53:51.474Z,52.90
2019-03-19T07:56:26.202Z,52.80
2019-03-19T07:59:01.195Z,52.70
2019-03-19T08:01:36.050Z,52.60
2019-03-19T08:04:11.229Z,52.70
2019-03-19T08:06:45.980Z,52.30
2019-03-19T08:09:20.411Z,52.80
2019-03-19T08:11:55.234Z,51.90
2019-03-19T08:14:30.472Z,52.40
2019-03-19T08:17:05.530Z,51.60
2019-03-19T08:19:41.132Z,51.40
2019-03-19T08:22:15.846Z,51.50
2019-03-19T08:24:50.687Z,51.60
2019-03-19T08:27:30.436Z,51.20
2019-03-19T08:30:07.206Z,51.10
2019-03-19T08:32:42.167Z,51.20
2019-03-19T08:35:16.542Z,51.10
2019-03-19T08:37:51.887Z,51.20
2019-03-19T08:40:26.607Z,51.30
2019-03-19T08:43:01.574Z,51.30
2019-03-19T08:45:36.068Z,51.20
2019-03-19T08:48:11.314Z,51.50
2019-03-19T08:50:46.103Z,51.70
2019-03-19T08:53:20.977Z,51.60
2019-03-19T08:55:56.199Z,51.60
2019-03-19T08:58:31.033Z,51.70
2019-03-19T09:01:05.601Z,51.60
2019-03-19T09:03:40.610Z,51.50
2019-03-19T09:06:15.846Z,51.40
2019-03-19T09:08:50.436Z,51.40
2019-03-19T09:11:25.846Z,51.50
2019-03-19T09:14:00.550Z,51.20
2019-03-19T09:16:35.218Z,51.20
2019-03-19T09:19:10.136Z,51.50
2019-03-19T09:21:44.903Z,52.20
2019-03-19T09:24:19.658Z,53.10
2019-03-19T09:26:54.462Z,53.80
2019-03-19T09:29:29.288Z,54.50
2019-03-19T09:32:04.766Z,54.70
2019-03-19T09:34:39.310Z,55.00
2019-03-19T09:37:13.890Z,55.10
2019-03-19T09:39:48.854Z,55.20
2019-03-19T09:42:23.497Z,55.20
2019-03-19T09:44:58.848Z,55.30
2019-03-19T09:47:33.271Z,55.80
2019-03-19T09:50:08.334Z,55.40
2019-03-19T09:52:42.861Z,55.40
2019-03-19T09:55:17.461Z,55.50
2019-03-19T09:57:52.701Z,55.50
2019-03-19T10:00:27.499Z,55.50
2019-03-19T10:03:02.117Z,55.50
2019-03-19T10:05:36.692Z,55.60
2019-03-19T10:08:11.449Z,55.70
2019-03-19T10:10:46.095Z,56.40
2019-03-19T10:13:21.544Z,55.70
2019-03-19T10:15:56.277Z,55.80
2019-03-19T10:18:31.502Z,55.70
2019-03-19T10:21:06.190Z,56.40
2019-03-19T10:23:40.941Z,55.80
2019-03-19T10:26:15.567Z,55.80
2019-03-19T10:28:50.232Z,55.80
2019-03-19T10:31:25.371Z,55.90
2019-03-19T10:34:00.272Z,55.90
2019-03-19T10:36:35.479Z,55.90
2019-03-19T10:39:11.075Z,55.80
2019-03-19T10:41:45.752Z,55.80
2019-03-19T10:44:20.398Z,55.90
2019-03-19T10:46:55.350Z,55.80
2019-03-19T10:49:29.970Z,55.90
2019-03-19T10:52:04.723Z,55.90
2019-03-19T10:54:39.729Z,55.80
2019-03-19T10:57:14.521Z,55.90
2019-03-19T10:59:49.552Z,55.90
2019-03-19T11:02:24.456Z,55.80
2019-03-19T11:04:59.146Z,55.90
2019-03-19T11:07:33.909Z,55.90
2019-03-19T11:10:08.652Z,55.90
2019-03-19T11:12:43.293Z,56.00
2019-03-19T11:15:19.009Z,56.00
2019-03-19T11:17:53.746Z,56.00
2019-03-19T11:20:28.299Z,56.00
2019-03-19T11:23:03.281Z,56.10
2019-03-19T11:25:37.977Z,56.10
2019-03-19T11:28:13.860Z,56.20
2019-03-19T11:30:48.715Z,56.20
2019-03-19T11:33:23.836Z,56.20
2019-03-19T11:35:58.939Z,56.20
2019-03-19T11:38:33.610Z,56.20
2019-03-19T11:41:08.442Z,56.20
2019-03-19T11:43:43.491Z,56.30
2019-03-19T11:46:18.353Z,56.20
2019-03-19T11:48:53.026Z,56.20
2019-03-19T11:51:27.290Z,56.30
2019-03-19T11:54:01.685Z,56.20
2019-03-19T11:56:36.880Z,56.30
2019-03-19T11:59:12.055Z,56.20
2019-03-19T12:01:48.035Z,56.30
2019-03-19T12:04:22.659Z,56.30
2019-03-19T12:06:57.884Z,56.30
2019-03-19T12:09:33.152Z,56.20
2019-03-19T12:12:07.610Z,56.30
2019-03-19T12:14:42.426Z,56.30
2019-03-19T12:17:17.850Z,56.40
2019-03-19T12:19:52.307Z,56.50
2019-03-19T12:22:27.357Z,56.40
2019-03-19T12:25:01.940Z,56.00
2019-03-19T12:27:37.058Z,55.00
2019-03-19T12:30:21.718Z,53.80
2019-03-19T12:32:48.364Z,52.70
2019-03-19T12:35:23.498Z,51.90
2019-03-19T12:37:58.358Z,51.20
2019-03-19T12:40:37.236Z,50.50
2019-03-19T12:43:09.208Z,49.80
2019-03-19T12:45:44.494Z,49.40
2019-03-19T12:48:19.230Z,49.00
2019-03-19T12:50:54.092Z,48.80
2019-03-19T12:53:28.745Z,49.30
2019-03-19T12:56:03.457Z,50.90
2019-03-19T12:58:38.128Z,51.80
2019-03-19T13:01:13.362Z,52.10
2019-03-19T13:03:48.048Z,52.90
2019-03-19T13:06:22.992Z,53.00
2019-03-19T13:08:57.235Z,53.00
2019-03-19T13:11:32.465Z,53.60
2019-03-19T13:14:07.002Z,53.40
2019-03-19T13:16:42.952Z,52.60
2019-03-19T13:19:18.272Z,52.10
2019-03-19T13:21:52.976Z,52.30
2019-03-19T13:24:28.029Z,52.60
2019-03-19T13:27:02.708Z,52.00
2019-03-19T13:29:37.276Z,52.40
2019-03-19T13:32:11.990Z,53.00
2019-03-19T13:34:46.749Z,52.70
2019-03-19T13:37:21.037Z,52.10
2019-03-19T13:39:55.743Z,51.60
2019-03-19T13:42:30.054Z,51.00
2019-03-19T13:45:05.208Z,50.50
2019-03-19T13:47:40.211Z,50.20
2019-03-19T13:50:15.383Z,50.50
2019-03-19T13:52:50.278Z,51.40
2019-03-19T13:55:24.800Z,52.10
2019-03-19T13:57:59.471Z,53.20
2019-03-19T14:00:34.546Z,54.00
2019-03-19T14:03:09.918Z,53.90
2019-03-19T14:05:44.603Z,54.20
2019-03-19T14:08:19.186Z,54.50
2019-03-19T14:10:57.234Z,55.40
2019-03-19T14:13:31.862Z,55.00
2019-03-19T14:16:06.631Z,55.20
2019-03-19T14:18:41.103Z,55.40
2019-03-19T14:21:18.598Z,55.40
2019-03-19T14:23:53.042Z,55.80
2019-03-19T14:26:27.969Z,55.90
2019-03-19T14:29:02.495Z,56.00
2019-03-19T14:31:37.735Z,55.40
2019-03-19T14:34:12.401Z,54.30
2019-03-19T14:36:47.051Z,53.30
2019-03-19T14:39:23.133Z,52.20
2019-03-19T14:41:57.465Z,51.30
2019-03-19T14:44:32.344Z,50.60
2019-03-19T14:47:07.501Z,50.00
2019-03-19T14:49:46.642Z,49.30
2019-03-19T14:52:18.358Z,49.30
2019-03-19T14:54:53.507Z,50.50
2019-03-19T14:57:28.870Z,50.30
2019-03-19T15:00:03.700Z,50.60
2019-03-19T15:02:38.171Z,50.80
2019-03-19T15:05:13.246Z,50.90
2019-03-19T15:07:48.063Z,51.20
2019-03-19T15:10:22.607Z,51.40
2019-03-19T15:12:59.360Z,51.60
2019-03-19T15:15:34.485Z,51.90
2019-03-19T15:18:08.865Z,52.20
2019-03-19T15:20:43.485Z,52.50
2019-03-19T15:23:18.251Z,52.80
2019-03-19T15:25:52.961Z,52.90
2019-03-19T15:28:27.903Z,53.20
2019-03-19T15:31:02.681Z,53.40
2019-03-19T15:33:37.266Z,53.80
2019-03-19T15:36:12.223Z,54.00
2019-03-19T15:38:47.066Z,54.20
2019-03-19T15:41:21.894Z,54.40
2019-03-19T15:43:56.195Z,54.70
2019-03-19T15:46:31.854Z,55.50
2019-03-19T15:49:07.766Z,55.00
2019-03-19T15:51:42.348Z,55.10
2019-03-19T15:54:16.972Z,55.30
2019-03-19T15:56:52.835Z,55.80
2019-03-19T15:59:27.414Z,55.60
2019-03-19T16:02:02.305Z,55.70
2019-03-19T16:04:37.132Z,55.90
2019-03-19T16:07:12.020Z,55.90
2019-03-19T16:09:46.932Z,56.20
2019-03-19T16:12:22.317Z,56.10
2019-03-19T16:14:56.934Z,56.30
2019-03-19T16:17:33.159Z,56.40
2019-03-19T16:20:08.291Z,56.50
2019-03-19T16:22:42.741Z,56.50
2019-03-19T16:25:17.656Z,56.70
2019-03-19T16:27:52.204Z,56.80
2019-03-19T16:30:26.957Z,56.90
2019-03-19T16:33:01.773Z,57.00
2019-03-19T16:35:36.866Z,57.10
2019-03-19T16:38:12.475Z,57.20
2019-03-19T16:40:47.225Z,57.20
2019-03-19T16:43:22.249Z,57.40
2019-03-19T16:45:57.092Z,57.40
2019-03-19T16:48:32.064Z,57.50
2019-03-19T16:51:06.546Z,57.60
2019-03-19T16:53:41.659Z,57.70
2019-03-19T16:56:16.540Z,57.70
2019-03-19T16:58:51.218Z,57.80
2019-03-19T17:01:25.652Z,57.90
2019-03-19T17:04:00.370Z,57.30
2019-03-19T17:06:35.304Z,58.00
2019-03-19T17:09:10.969Z,58.10
2019-03-19T17:11:45.290Z,58.10
2019-03-19T17:14:20.073Z,58.20
2019-03-19T17:16:54.637Z,58.20
2019-03-19T17:19:29.756Z,58.30
2019-03-19T17:22:04.268Z,58.30
2019-03-19T17:24:38.750Z,58.50
2019-03-19T17:27:14.049Z,58.50
2019-03-19T17:29:48.722Z,58.40
2019-03-19T17:32:23.848Z,58.60
2019-03-19T17:34:58.025Z,58.60
2019-03-19T17:37:33.038Z,58.60
2019-03-19T17:40:08.392Z,58.60
2019-03-19T17:42:43.550Z,58.70
2019-03-19T17:45:18.805Z,58.80
2019-03-19T17:47:53.848Z,58.70
2019-03-19T17:50:28.780Z,58.80
2019-03-19T17:53:03.741Z,58.80
2019-03-19T17:55:38.766Z,58.80
2019-03-19T17:58:13.702Z,58.90
2019-03-19T18:00:48.925Z,58.70
2019-03-19T18:03:24.114Z,58.90
2019-03-19T18:05:58.829Z,59.00
2019-03-19T18:08:33.174Z,59.10
2019-03-19T18:11:07.916Z,59.00
2019-03-19T18:13:42.833Z,59.10
2019-03-19T18:16:18.027Z,59.00
2019-03-19T18:18:52.882Z,59.10
2019-03-19T18:21:27.593Z,59.20
2019-03-19T18:24:02.627Z,59.10
2019-03-19T18:26:37.442Z,59.20
2019-03-19T18:29:12.414Z,59.20
2019-03-19T18:31:47.220Z,59.90
2019-03-19T18:34:22.351Z,59.50
2019-03-19T18:36:56.641Z,59.30
2019-03-19T18:39:31.430Z,59.30
2019-03-19T18:42:06.853Z,59.30
2019-03-19T18:44:42.395Z,59.30
2019-03-19T18:47:17.205Z,59.40
2019-03-19T18:49:52.038Z,59.30
2019-03-19T18:52:27.011Z,59.40
2019-03-19T18:55:01.675Z,60.20
2019-03-19T18:57:36.299Z,59.60
2019-03-19T19:00:13.503Z,59.50
2019-03-19T19:02:50.785Z,60.20
2019-03-19T19:05:25.166Z,59.20
2019-03-19T19:07:59.978Z,59.50
2019-03-19T19:10:34.486Z,59.50
2019-03-19T19:13:09.137Z,59.60
2019-03-19T19:15:44.106Z,59.60
2019-03-19T19:18:18.988Z,59.60
2019-03-19T19:20:53.468Z,59.60
2019-03-19T19:23:28.214Z,59.60
2019-03-19T19:26:02.690Z,59.60
2019-03-19T19:28:37.763Z,59.70
2019-03-19T19:31:12.486Z,59.70
2019-03-19T19:33:47.772Z,59.70
2019-03-19T19:36:22.504Z,59.70
2019-03-19T19:38:57.254Z,59.80
2019-03-19T19:41:31.854Z,59.80
2019-03-19T19:44:07.690Z,59.90
2019-03-19T19:46:42.288Z,59.90
2019-03-19T19:49:17.037Z,59.90
2019-03-19T19:51:52.724Z,60.00
2019-03-19T19:54:27.206Z,60.00
2019-03-19T19:57:02.446Z,60.90
2019-03-19T19:59:37.310Z,60.10
2019-03-19T20:02:12.947Z,60.40
2019-03-19T20:04:47.619Z,60.20
2019-03-19T20:07:22.620Z,60.30
2019-03-19T20:09:56.682Z,60.50
2019-03-19T20:12:31.502Z,60.60
2019-03-19T20:15:05.994Z,60.60
2019-03-19T20:17:41.365Z,60.70
2019-03-19T20:20:17.321Z,60.80
2019-03-19T20:22:52.123Z,60.90
2019-03-19T20:25:26.934Z,60.80
2019-03-19T20:28:01.551Z,60.90
2019-03-19T20:30:36.799Z,61.00
2019-03-19T20:33:11.574Z,61.10
2019-03-19T20:35:46.750Z,61.20
2019-03-19T20:38:21.969Z,62.10
2019-03-19T20:40:56.782Z,61.40
2019-03-19T20:43:31.067Z,61.40
2019-03-19T20:46:06.067Z,61.30
2019-03-19T20:48:41.277Z,61.30
2019-03-19T20:51:15.867Z,61.40
2019-03-19T20:53:50.334Z,61.50
2019-03-19T20:56:25.180Z,61.50
2019-03-19T20:59:00.208Z,61.50
2019-03-19T21:01:34.815Z,61.50
2019-03-19T21:04:09.586Z,61.50
2019-03-19T21:06:44.105Z,61.60
2019-03-19T21:09:18.754Z,61.50
2019-03-19T21:11:53.554Z,61.60
2019-03-19T21:14:28.410Z,61.60
2019-03-19T21:17:03.253Z,61.60
2019-03-19T21:19:38.368Z,61.60
2019-03-19T21:22:12.882Z,61.70
2019-03-19T21:24:47.953Z,61.70
2019-03-19T21:27:22.424Z,61.70
2019-03-19T21:29:57.493Z,61.70
2019-03-19T21:32:31.780Z,61.70
2019-03-19T21:35:06.758Z,61.70
2019-03-19T21:37:41.457Z,61.70
2019-03-19T21:40:17.470Z,61.70
2019-03-19T21:42:52.183Z,61.70
2019-03-19T21:45:26.492Z,61.80
2019-03-19T21:48:01.429Z,61.80
2019-03-19T21:50:36.044Z,61.80
2019-03-19T21:53:10.613Z,61.80
2019-03-19T21:55:45.852Z,61.80
2019-03-19T21:58:20.170Z,61.90
2019-03-19T22:00:55.483Z,61.90
2019-03-19T22:03:30.327Z,62.00
2019-03-19T22:06:05.274Z,62.00
2019-03-19T22:08:40.060Z,62.00
2019-03-19T22:11:14.908Z,62.10
2019-03-19T22:13:50.131Z,62.10
2019-03-19T22:16:25.410Z,62.10
2019-03-19T22:18:59.935Z,62.20
2019-03-19T22:21:35.052Z,62.30
2019-03-19T22:24:09.725Z,62.30
2019-03-19T22:26:44.563Z,62.40
2019-03-19T22:29:19.496Z,62.30
2019-03-19T22:31:54.022Z,62.30
2019-03-19T22:34:29.038Z,62.30
2019-03-19T22:37:03.861Z,62.40
2019-03-19T22:39:38.670Z,62.40
2019-03-19T22:42:13.099Z,62.50
2019-03-19T22:44:47.652Z,62.60
2019-03-19T22:47:22.481Z,62.80
2019-03-19T22:49:57.707Z,62.60
2019-03-19T22:52:32.270Z,63.60
2019-03-19T22:55:07.099Z,62.70
2019-03-19T22:57:42.164Z,62.80
2019-03-19T23:00:39.761Z,62.90
2019-03-19T23:03:15.139Z,62.90
2019-03-19T23:05:50.025Z,62.90
2019-03-19T23:08:24.321Z,62.90
2019-03-19T23:10:59.343Z,63.10
2019-03-19T23:13:34.078Z,63.20
2019-03-19T23:19:00.191Z,63.10
2019-03-19T23:21:35.259Z,63.20
2019-03-19T23:24:09.971Z,63.30
2019-03-19T23:26:45.039Z,63.40
2019-03-19T23:29:19.948Z,63.40
2019-03-19T23:31:55.048Z,63.40
2019-03-19T23:34:38.203Z,63.50
2019-03-19T23:37:06.972Z,63.60
2019-03-19T23:39:41.581Z,63.60
2019-03-19T23:42:16.299Z,63.50
2019-03-19T23:44:50.783Z,63.60
2019-03-19T23:47:25.676Z,63.60
2019-03-19T23:49:59.950Z,63.70
2019-03-19T23:52:34.219Z,63.70
2019-03-19T23:55:09.163Z,63.70
2019-03-19T23:57:43.826Z,63.80
